sensor_id;sensor_type;location;lat;lon;timestamp;pressure;altitude;pressure_sealevel;temperature;humidity
61963;BME280;47927;42.646;23.096;2023-02-14T17:52:35;93128.56;;;4.76;50.90
61963;BME280;47927;42.646;23.096;2023-02-14T17:55:00;93137.91;;;5.03;49.67
61963;BME280;47927;42.646;23.096;2023-02-14T17:57:26;93140.09;;;5.28;49.21
61963;BME280;47927;42.646;23.096;2023-02-14T17:59:53;93145.31;;;4.96;49.59
61963;BME280;47927;42.646;23.096;2023-02-14T18:02:19;93148.91;;;5.35;48.71
61963;BME280;47927;42.646;23.096;2023-02-14T18:04:44;93144.69;;;5.48;48.65
61963;BME280;47927;42.646;23.096;2023-02-14T18:07:13;93150.59;;;5.40;48.31
61963;BME280;47927;42.646;23.096;2023-02-14T18:09:38;93148.28;;;5.38;48.72
61963;BME280;47927;42.646;23.096;2023-02-14T18:12:04;93160.19;;;5.57;48.17
61963;BME280;47927;42.646;23.096;2023-02-14T18:14:32;93156.25;;;5.51;48.08
61963;BME280;47927;42.646;23.096;2023-02-14T18:16:57;93146.94;;;5.49;48.15
61963;BME280;47927;42.646;23.096;2023-02-14T18:19:23;93158.06;;;5.59;47.88
61963;BME280;47927;42.646;23.096;2023-02-14T18:21:49;93160.34;;;5.52;48.30
61963;BME280;47927;42.646;23.096;2023-02-14T19:02:04;93141.94;;;5.36;48.08
61963;BME280;47927;42.646;23.096;2023-02-14T19:04:29;93156.84;;;5.56;47.75
61963;BME280;47927;42.646;23.096;2023-02-14T19:06:55;93165.38;;;5.57;47.52
61963;BME280;47927;42.646;23.096;2023-02-14T19:09:20;93159.59;;;5.60;47.72
61963;BME280;47927;42.646;23.096;2023-02-14T19:11:46;93153.47;;;5.38;48.40
61963;BME280;47927;42.646;23.096;2023-02-14T19:14:12;93150.13;;;5.46;48.10
61963;BME280;47927;42.646;23.096;2023-02-14T19:16:43;93160.34;;;5.69;47.58
61963;BME280;47927;42.646;23.096;2023-02-14T19:19:14;93147.25;;;5.39;48.15
61963;BME280;47927;42.646;23.096;2023-02-14T19:21:40;93156.06;;;5.30;49.06
61963;BME280;47927;42.646;23.096;2023-02-14T19:24:07;93156.63;;;5.18;49.05
61963;BME280;47927;42.646;23.096;2023-02-14T19:26:37;93153.59;;;4.36;51.08
61963;BME280;47927;42.646;23.096;2023-02-14T19:29:07;93155.19;;;4.01;52.10
61963;BME280;47927;42.646;23.096;2023-02-14T19:31:35;93155.53;;;4.62;51.15
61963;BME280;47927;42.646;23.096;2023-02-14T19:34:03;93157.44;;;4.87;50.09
61963;BME280;47927;42.646;23.096;2023-02-14T19:36:29;93159.84;;;5.23;49.11
61963;BME280;47927;42.646;23.096;2023-02-14T19:38:55;93157.25;;;5.15;49.29
61963;BME280;47927;42.646;23.096;2023-02-14T19:41:23;93162.44;;;5.49;48.44
61963;BME280;47927;42.646;23.096;2023-02-14T19:43:49;93161.72;;;5.58;48.13
61963;BME280;47927;42.646;23.096;2023-02-14T19:46:17;93164.44;;;5.61;48.00
61963;BME280;47927;42.646;23.096;2023-02-14T19:48:44;93158.53;;;5.78;47.11
61963;BME280;47927;42.646;23.096;2023-02-14T19:51:19;93142.41;;;5.64;47.30
61963;BME280;47927;42.646;23.096;2023-02-14T19:53:45;93165.97;;;5.80;47.31
61963;BME280;47927;42.646;23.096;2023-02-14T19:56:11;93162.94;;;5.78;47.46
61963;BME280;47927;42.646;23.096;2023-02-14T19:58:37;93168.84;;;5.61;47.61
61963;BME280;47927;42.646;23.096;2023-02-14T20:01:03;93153.91;;;5.23;48.30
61963;BME280;47927;42.646;23.096;2023-02-14T20:03:30;93161.81;;;5.27;48.42
61963;BME280;47927;42.646;23.096;2023-02-14T20:05:57;93171.31;;;5.00;48.77
61963;BME280;47927;42.646;23.096;2023-02-14T20:08:22;93184.28;;;5.26;48.35
61963;BME280;47927;42.646;23.096;2023-02-14T20:10:48;93182.38;;;5.49;47.83
61963;BME280;47927;42.646;23.096;2023-02-14T20:13:13;93177.69;;;5.68;47.51
61963;BME280;47927;42.646;23.096;2023-02-14T20:15:39;93174.94;;;5.82;47.27
61963;BME280;47927;42.646;23.096;2023-02-14T20:18:06;93169.16;;;5.85;47.09
61963;BME280;47927;42.646;23.096;2023-02-14T20:20:32;93167.34;;;5.60;47.16
61963;BME280;47927;42.646;23.096;2023-02-14T20:23:17;93171.31;;;5.00;48.83
61963;BME280;47927;42.646;23.096;2023-02-14T20:25:43;93157.69;;;5.17;48.67
61963;BME280;47927;42.646;23.096;2023-02-14T20:28:08;93162.13;;;5.25;48.12
61963;BME280;47927;42.646;23.096;2023-02-14T20:30:37;93152.41;;;5.39;48.04
61963;BME280;47927;42.646;23.096;2023-02-14T20:33:03;93164.75;;;5.51;47.71
61963;BME280;47927;42.646;23.096;2023-02-14T20:35:29;93158.53;;;5.61;47.21
61963;BME280;47927;42.646;23.096;2023-02-14T20:37:58;93154.06;;;4.78;48.55
61963;BME280;47927;42.646;23.096;2023-02-14T20:40:24;93161.28;;;4.59;50.00
61963;BME280;47927;42.646;23.096;2023-02-14T20:42:49;93154.88;;;4.96;49.16
61963;BME280;47927;42.646;23.096;2023-02-14T20:45:15;93165.06;;;4.92;49.32
61963;BME280;47927;42.646;23.096;2023-02-14T20:47:40;93158.25;;;5.05;48.91
61963;BME280;47927;42.646;23.096;2023-02-14T20:50:06;93157.41;;;5.27;48.49
61963;BME280;47927;42.646;23.096;2023-02-14T20:52:35;93161.66;;;5.23;48.59
61963;BME280;47927;42.646;23.096;2023-02-14T20:55:00;93155.59;;;5.28;48.22
61963;BME280;47927;42.646;23.096;2023-02-14T20:57:27;93154.88;;;5.44;47.92
61963;BME280;47927;42.646;23.096;2023-02-14T20:59:53;93160.19;;;5.57;47.47
61963;BME280;47927;42.646;23.096;2023-02-14T21:02:18;93159.47;;;4.99;48.79
61963;BME280;47927;42.646;23.096;2023-02-14T21:04:44;93159.50;;;5.16;48.43
61963;BME280;47927;42.646;23.096;2023-02-14T21:07:10;93161.66;;;5.23;48.21
61963;BME280;47927;42.646;23.096;2023-02-14T21:09:35;93163.81;;;5.30;48.04
61963;BME280;47927;42.646;23.096;2023-02-14T21:12:04;93166.25;;;5.52;47.80
61963;BME280;47927;42.646;23.096;2023-02-14T21:14:30;93167.19;;;5.47;47.62
61963;BME280;47927;42.646;23.096;2023-02-14T21:16:56;93168.72;;;5.57;47.62
61963;BME280;47927;42.646;23.096;2023-02-14T21:19:21;93161.41;;;5.42;47.67
61963;BME280;47927;42.646;23.096;2023-02-14T21:21:47;93165.50;;;4.86;48.78
61963;BME280;47927;42.646;23.096;2023-02-14T21:24:14;93158.34;;;4.83;49.44
61963;BME280;47927;42.646;23.096;2023-02-14T21:26:40;93168.91;;;5.03;48.95
61963;BME280;47927;42.646;23.096;2023-02-14T21:29:06;93168.13;;;4.94;49.20
61963;BME280;47927;42.646;23.096;2023-02-14T21:31:33;93176.06;;;4.75;49.42
61963;BME280;47927;42.646;23.096;2023-02-14T21:34:00;93170.84;;;4.27;50.70
61963;BME280;47927;42.646;23.096;2023-02-14T21:36:28;93171.53;;;4.41;50.76
61963;BME280;47927;42.646;23.096;2023-02-14T21:38:56;93161.88;;;4.55;50.20
61963;BME280;47927;42.646;23.096;2023-02-14T21:41:24;93165.25;;;5.05;49.29
61963;BME280;47927;42.646;23.096;2023-02-14T21:43:51;93168.63;;;5.22;48.84
61963;BME280;47927;42.646;23.096;2023-02-14T21:46:19;93161.75;;;5.00;48.72
61963;BME280;47927;42.646;23.096;2023-02-14T21:48:45;93158.75;;;4.36;50.52
61963;BME280;47927;42.646;23.096;2023-02-14T21:51:30;93169.28;;;4.79;50.01
61963;BME280;47927;42.646;23.096;2023-02-14T21:53:57;93171.03;;;5.10;49.01
61963;BME280;47927;42.646;23.096;2023-02-14T21:56:26;93163.59;;;5.09;48.73
61963;BME280;47927;42.646;23.096;2023-02-14T21:58:53;93167.66;;;4.92;49.19
61963;BME280;47927;42.646;23.096;2023-02-14T22:01:25;93173.28;;;4.94;49.30
61963;BME280;47927;42.646;23.096;2023-02-14T22:03:52;93168.00;;;5.08;49.11
61963;BME280;47927;42.646;23.096;2023-02-14T22:06:18;93168.63;;;5.22;48.53
61963;BME280;47927;42.646;23.096;2023-02-14T22:08:44;93158.25;;;5.05;48.81
61963;BME280;47927;42.646;23.096;2023-02-14T22:11:12;93175.75;;;5.08;48.68
61963;BME280;47927;42.646;23.096;2023-02-14T22:13:39;93174.44;;;4.48;50.39
61963;BME280;47927;42.646;23.096;2023-02-14T22:16:13;93168.41;;;4.30;50.85
61963;BME280;47927;42.646;23.096;2023-02-14T22:18:41;93175.97;;;4.49;50.60
61963;BME280;47927;42.646;23.096;2023-02-14T22:21:09;93161.63;;;4.34;50.40
61963;BME280;47927;42.646;23.096;2023-02-14T22:23:37;93182.19;;;4.48;50.41
61963;BME280;47927;42.646;23.096;2023-02-14T22:26:12;93181.28;;;4.84;49.65
61963;BME280;47927;42.646;23.096;2023-02-14T22:28:38;93188.63;;;4.91;49.34
61963;BME280;47927;42.646;23.096;2023-02-14T22:31:05;93190.09;;;4.83;49.81
61963;BME280;47927;42.646;23.096;2023-02-14T22:33:30;93186.81;;;5.00;49.47
61963;BME280;47927;42.646;23.096;2023-02-14T22:35:57;93191.41;;;5.20;48.90
61963;BME280;47927;42.646;23.096;2023-02-14T22:38:23;93196.00;;;5.23;48.77
61963;BME280;47927;42.646;23.096;2023-02-14T22:40:49;93202.75;;;5.02;49.03
61963;BME280;47927;42.646;23.096;2023-02-14T22:43:15;93205.50;;;5.06;49.28
61963;BME280;47927;42.646;23.096;2023-02-14T22:45:40;93184.69;;;5.02;48.98
61963;BME280;47927;42.646;23.096;2023-02-14T22:48:06;93193.47;;;4.92;49.78
61963;BME280;47927;42.646;23.096;2023-02-14T22:50:31;93187.22;;;4.93;49.40
61963;BME280;47927;42.646;23.096;2023-02-14T22:53:01;93183.19;;;5.10;49.15
61963;BME280;47927;42.646;23.096;2023-02-14T22:55:28;93190.97;;;5.18;48.70
61963;BME280;47927;42.646;23.096;2023-02-14T22:57:53;93181.50;;;5.05;48.80
61963;BME280;47927;42.646;23.096;2023-02-14T23:00:19;93203.59;;;5.20;48.80
61963;BME280;47927;42.646;23.096;2023-02-14T23:02:45;93188.56;;;4.82;49.33
61963;BME280;47927;42.646;23.096;2023-02-14T23:05:10;93194.72;;;5.03;49.18
61963;BME280;47927;42.646;23.096;2023-02-14T23:07:36;93202.19;;;5.14;49.28
61963;BME280;47927;42.646;23.096;2023-02-14T23:10:01;93198.88;;;5.22;48.84
61963;BME280;47927;42.646;23.096;2023-02-14T23:12:27;93203.00;;;5.32;48.88
61963;BME280;47927;42.646;23.096;2023-02-14T23:15:11;93204.66;;;5.19;49.18
61963;BME280;47927;42.646;23.096;2023-02-14T23:17:55;93199.47;;;5.19;49.08
61963;BME280;47927;42.646;23.096;2023-02-14T23:20:38;93199.50;;;5.28;49.14
61963;BME280;47927;42.646;23.096;2023-02-14T23:23:22;93199.53;;;5.36;48.88
61963;BME280;47927;42.646;23.096;2023-02-14T23:25:48;93192.03;;;5.09;49.54
61963;BME280;47927;42.646;23.096;2023-02-14T23:28:13;93180.72;;;4.96;49.77
61963;BME280;47927;42.646;23.096;2023-02-14T23:30:39;93182.91;;;4.71;50.58
61963;BME280;47927;42.646;23.096;2023-02-14T23:33:04;93182.78;;;4.76;50.74
61963;BME280;47927;42.646;23.096;2023-02-14T23:35:30;93187.66;;;4.87;50.61
61963;BME280;47927;42.646;23.096;2023-02-14T23:37:55;93192.34;;;4.85;50.59
61963;BME280;47927;42.646;23.096;2023-02-14T23:40:21;93189.97;;;4.88;50.35
61963;BME280;47927;42.646;23.096;2023-02-14T23:42:46;93179.44;;;4.85;50.69
61963;BME280;47927;42.646;23.096;2023-02-14T23:45:12;93188.03;;;5.02;50.42
61963;BME280;47927;42.646;23.096;2023-02-14T23:48:03;93186.34;;;4.98;50.15
61963;BME280;47927;42.646;23.096;2023-02-14T23:50:29;93187.75;;;5.04;49.98
61963;BME280;47927;42.646;23.096;2023-02-14T23:52:55;93181.03;;;4.94;50.23
61963;BME280;47927;42.646;23.096;2023-02-14T23:55:20;93182.44;;;5.09;49.83
61963;BME280;47927;42.646;23.096;2023-02-14T23:57:46;93182.47;;;5.18;49.67
